Home   Weather   Turkey   Dalaman   Past weeks
Flag for Turkey

Past Weather in Dalaman, Turkey — Yesterday and Last 2 Weeks

Currently: 81 °F. Passing clouds. (Weather station: Dalaman, Turkey). See more current weather

Past Weather in Dalaman — Graph

°F

Dalaman Temperature Yesterday

Maximum temperature yesterday: 79 °F (at 6:50 pm)
Minimum temperature yesterday: 63 °F (at 5:50 am)
Average temperature yesterday: 73 °F

High & Low Weather Summary for the Past Weeks

 TemperatureHumidityPressure
High90 °F (May 22, 4:20 pm)100% (May 12, 5:50 am)30.09 "Hg (May 12, 5:50 am)
Low55 °F (May 10, 3:20 am)17% (May 10, 3:50 pm)29.56 "Hg (May 10, 3:50 pm)
Average71 °F65%29.85 "Hg
* Reported May 9 7:20 pm — May 24 7:50 pm, Dalaman. Weather by CustomWeather, © 2024

Note: Actual official high and low records may vary slightly from our data, if they occured in-between our weather recording intervals... More about our weather records

Dalaman Weather History for the Previous 24 Hours

Scroll right to see more
 ConditionsComfort  
Time TempWeatherWind HumidityBarometerVisibility
7:50 pm
Fri, May 24
81 °FPassing clouds.10 mph32%29.83 "HgN/A
7:20 pm82 °FPassing clouds.12 mph30%29.80 "HgN/A
6:50 pm82 °FPassing clouds.16 mph30%29.80 "HgN/A
6:20 pm82 °FPassing clouds.16 mph28%29.80 "HgN/A
5:50 pm84 °FPassing clouds.18 mph29%29.80 "HgN/A
5:20 pm84 °FPassing clouds.21 mph29%29.80 "HgN/A
4:50 pm82 °FPassing clouds.17 mph30%29.80 "HgN/A
4:20 pm84 °FPassing clouds.22 mph29%29.80 "HgN/A
3:50 pm84 °FPassing clouds.22 mph29%29.80 "HgN/A
3:20 pm84 °FPassing clouds.21 mph29%29.80 "HgN/A
2:50 pm84 °FPassing clouds.20 mph29%29.80 "HgN/A
1:50 pm84 °FPassing clouds.21 mph27%29.80 "HgN/A
1:20 pm84 °FPassing clouds.21 mph27%29.80 "HgN/A
12:50 pm84 °FPassing clouds.20 mph27%29.80 "HgN/A
12:20 pm82 °FPassing clouds.22 mph28%29.80 "HgN/A
11:50 am82 °FPassing clouds.21 mph30%29.83 "HgN/A
11:20 am81 °FSunny.20 mph30%29.83 "Hg10 mi
10:50 am81 °FSunny.15 mph28%29.83 "Hg10 mi
10:20 am79 °FPassing clouds.15 mph30%29.83 "HgN/A
9:50 am77 °FPassing clouds.15 mph32%29.83 "HgN/A
9:20 am75 °FSunny.15 mph36%29.83 "Hg10 mi
8:50 am75 °FSunny.15 mph39%29.83 "Hg10 mi
8:20 am73 °FSunny.17 mph38%29.83 "Hg10 mi
7:50 am72 °FSunny.17 mph44%29.83 "Hg10 mi
7:20 am70 °FSunny.8 mph50%29.80 "Hg10 mi
6:50 am68 °FPassing clouds.7 mph53%29.80 "HgN/A
6:20 am63 °FSunny.3 mph64%29.80 "Hg10 mi
5:50 am64 °FPassing clouds.3 mph60%29.80 "HgN/A
5:20 am66 °FPassing clouds.5 mph56%29.80 "HgN/A
4:50 am66 °FPassing clouds.5 mph56%29.80 "HgN/A
3:50 am68 °FPassing clouds.6 mph56%29.80 "HgN/A
3:20 am64 °FClear.9 mph64%29.80 "Hg10 mi
2:50 am64 °FClear.7 mph64%29.80 "Hg10 mi
2:20 am68 °FClear.8 mph56%29.80 "Hg10 mi
1:50 am68 °FPassing clouds.7 mph56%29.80 "HgN/A
1:20 am72 °FClear.13 mph50%29.80 "Hg10 mi
12:50 am73 °FClear.10 mph50%29.80 "Hg10 mi
12:20 am73 °FClear.9 mph53%29.83 "Hg10 mi
11:50 pm
Thu, May 23
73 °FPassing clouds.10 mph57%29.83 "HgN/A
11:20 pm75 °FPassing clouds.10 mph54%29.80 "HgN/A
10:50 pm75 °FClear.13 mph50%29.80 "Hg10 mi
10:20 pm75 °FClear.10 mph57%29.80 "Hg10 mi
9:50 pm75 °FClear.10 mph57%29.80 "Hg10 mi
9:20 pm75 °FPassing clouds.10 mph57%29.80 "HgN/A
Weather by CustomWeather, © 2024

See weather overview